createdAt,value
2023-04-26T00:00:54.236Z,10.73
2023-04-26T00:03:23.578Z,10.70
2023-04-26T00:05:51.909Z,10.68
2023-04-26T00:08:19.994Z,10.66
2023-04-26T00:10:48.183Z,10.65
2023-04-26T00:13:16.339Z,10.63
2023-04-26T00:15:44.362Z,10.62
2023-04-26T00:18:12.814Z,10.61
2023-04-26T00:20:41.665Z,10.59
2023-04-26T00:23:11.003Z,10.57
2023-04-26T00:25:39.032Z,10.57
2023-04-26T00:28:06.886Z,10.56
2023-04-26T00:30:37.590Z,10.56
2023-04-26T00:33:05.648Z,10.55
2023-04-26T00:35:34.256Z,10.55
2023-04-26T00:38:02.232Z,10.55
2023-04-26T00:40:30.917Z,10.54
2023-04-26T00:42:59.393Z,10.54
2023-04-26T00:45:27.720Z,10.52
2023-04-26T00:47:56.346Z,10.52
2023-04-26T00:50:24.548Z,10.51
2023-04-26T00:52:52.936Z,10.49
2023-04-26T00:55:22.819Z,10.48
2023-04-26T00:57:51.030Z,10.48
2023-04-26T01:00:19.627Z,10.47
2023-04-26T01:02:47.794Z,10.46
2023-04-26T01:05:15.880Z,10.45
2023-04-26T01:07:46.311Z,10.43
2023-04-26T01:10:14.387Z,10.42
2023-04-26T01:12:42.459Z,10.41
2023-04-26T01:15:11.455Z,10.39
2023-04-26T01:17:39.713Z,10.36
2023-04-26T01:20:10.601Z,10.35
2023-04-26T01:22:38.586Z,10.32
2023-04-26T01:25:09.392Z,10.30
2023-04-26T01:27:37.419Z,10.27
2023-04-26T01:30:05.860Z,10.23
2023-04-26T01:32:35.210Z,10.19
2023-04-26T01:35:03.760Z,10.17
2023-04-26T01:37:31.915Z,10.16
2023-04-26T01:40:01.039Z,10.14
2023-04-26T01:42:28.924Z,10.12
2023-04-26T01:44:56.878Z,10.11
2023-04-26T01:47:26.582Z,10.08
2023-04-26T01:49:54.773Z,10.07
2023-04-26T01:52:23.047Z,10.04
2023-04-26T01:54:51.630Z,10.02
2023-04-26T01:57:21.655Z,10.00
2023-04-26T01:59:49.830Z,9.99
2023-04-26T02:02:19.047Z,9.98
2023-04-26T02:04:47.166Z,9.96
2023-04-26T02:07:16.100Z,9.96
2023-04-26T02:09:46.942Z,9.94
2023-04-26T02:12:15.026Z,9.94
2023-04-26T02:14:43.203Z,9.93
2023-04-26T02:17:11.389Z,9.92
2023-04-26T02:19:39.564Z,9.91
2023-04-26T02:22:08.153Z,9.91
2023-04-26T02:24:36.124Z,9.89
2023-04-26T02:27:05.575Z,9.90
2023-04-26T02:29:44.504Z,9.90
2023-04-26T02:32:14.181Z,9.90
2023-04-26T02:34:43.281Z,9.90
2023-04-26T02:37:11.656Z,9.89
2023-04-26T02:39:39.729Z,9.90
2023-04-26T02:42:11.094Z,9.88
2023-04-26T02:44:40.156Z,9.88
2023-04-26T02:47:09.681Z,9.88
2023-04-26T02:49:38.407Z,9.88
2023-04-26T02:52:06.343Z,9.87
2023-04-26T02:54:34.627Z,9.86
2023-04-26T02:57:02.906Z,9.87
2023-04-26T02:59:31.115Z,9.89
2023-04-26T03:01:59.222Z,9.92
2023-04-26T03:04:27.962Z,9.94
2023-04-26T03:06:56.036Z,9.96
2023-04-26T03:09:24.522Z,9.97
2023-04-26T03:11:52.843Z,9.99
2023-04-26T03:14:21.701Z,10.00
2023-04-26T03:16:49.892Z,10.01
2023-04-26T03:19:18.154Z,10.02
2023-04-26T03:21:47.677Z,10.03
2023-04-26T03:24:15.640Z,10.06
2023-04-26T03:26:43.626Z,10.08
2023-04-26T03:29:12.620Z,10.10
2023-04-26T03:31:41.100Z,10.11
2023-04-26T03:34:10.096Z,10.11
2023-04-26T03:36:38.689Z,10.10
2023-04-26T03:39:06.960Z,10.09
2023-04-26T03:41:39.651Z,10.08
2023-04-26T03:44:08.539Z,10.08
2023-04-26T03:46:37.000Z,10.08
2023-04-26T03:49:05.304Z,10.09
2023-04-26T03:51:33.281Z,10.09
2023-04-26T03:54:01.256Z,10.08
2023-04-26T03:56:29.449Z,10.08
2023-04-26T03:58:58.023Z,10.09
2023-04-26T04:01:27.040Z,10.11
2023-04-26T04:03:55.644Z,10.12
2023-04-26T04:06:24.089Z,10.11
2023-04-26T04:08:52.237Z,10.10
2023-04-26T04:11:21.603Z,10.10
2023-04-26T04:13:49.663Z,10.10
2023-04-26T04:16:18.185Z,10.10
2023-04-26T04:18:46.734Z,10.10
2023-04-26T04:21:14.910Z,10.10
2023-04-26T04:23:44.519Z,10.09
2023-04-26T04:26:14.262Z,10.09
2023-04-26T04:28:42.612Z,10.09
2023-04-26T04:31:10.606Z,10.07
2023-04-26T04:33:39.071Z,10.05
2023-04-26T04:36:08.491Z,10.01
2023-04-26T04:38:37.590Z,9.98
2023-04-26T04:41:08.532Z,9.94
2023-04-26T04:43:37.449Z,9.90
2023-04-26T04:46:05.554Z,9.87
2023-04-26T04:48:35.637Z,9.83
2023-04-26T04:51:03.908Z,9.81
2023-04-26T04:53:31.979Z,9.78
2023-04-26T04:56:00.967Z,9.75
2023-04-26T04:58:28.912Z,9.72
2023-04-26T05:00:58.256Z,9.68
2023-04-26T05:03:29.624Z,9.66
2023-04-26T05:05:57.993Z,9.62
2023-04-26T05:08:26.483Z,9.60
2023-04-26T05:10:56.939Z,9.57
2023-04-26T05:13:25.277Z,9.55
2023-04-26T05:15:53.269Z,9.52
2023-04-26T05:18:22.058Z,9.47
2023-04-26T05:20:50.858Z,9.46
2023-04-26T05:23:19.232Z,9.43
2023-04-26T05:25:47.316Z,9.40
2023-04-26T05:28:41.391Z,9.35
2023-04-26T05:31:45.111Z,9.31
2023-04-26T05:34:24.826Z,9.28
2023-04-26T05:36:57.011Z,9.25
2023-04-26T05:39:25.057Z,9.21
2023-04-26T05:41:52.987Z,9.19
2023-04-26T05:44:22.418Z,9.17
2023-04-26T05:46:51.060Z,9.15
2023-04-26T05:49:19.116Z,9.14
2023-04-26T05:51:47.340Z,9.14
2023-04-26T05:54:15.231Z,9.14
2023-04-26T05:56:43.485Z,9.14
2023-04-26T05:59:13.736Z,9.13
2023-04-26T06:01:42.639Z,9.14
2023-04-26T06:04:11.000Z,9.15
2023-04-26T06:06:53.122Z,9.16
2023-04-26T06:09:22.710Z,9.18
2023-04-26T06:11:51.165Z,9.19
2023-04-26T06:14:29.233Z,9.20
2023-04-26T06:16:59.297Z,9.22
2023-04-26T06:19:28.740Z,9.23
2023-04-26T06:21:57.654Z,9.24
2023-04-26T06:24:26.195Z,9.26
2023-04-26T06:26:54.928Z,9.28
2023-04-26T06:29:23.021Z,9.30
2023-04-26T06:31:52.407Z,9.30
2023-04-26T06:34:22.083Z,9.31
2023-04-26T06:36:51.159Z,9.31
2023-04-26T06:39:19.449Z,9.31
2023-04-26T06:41:48.946Z,9.33
2023-04-26T06:44:27.256Z,9.34
2023-04-26T06:47:03.508Z,9.34
2023-04-26T06:49:33.284Z,9.34
2023-04-26T06:52:01.759Z,9.34
2023-04-26T06:54:30.620Z,9.35
2023-04-26T06:57:01.262Z,9.34
2023-04-26T06:59:29.742Z,9.34
2023-04-26T07:01:58.524Z,9.33
2023-04-26T07:04:27.435Z,9.33
2023-04-26T07:06:56.082Z,9.32
2023-04-26T07:09:24.172Z,9.31
2023-04-26T07:11:52.175Z,9.31
2023-04-26T07:14:21.529Z,9.30
2023-04-26T07:16:49.997Z,9.29
2023-04-26T07:19:18.312Z,9.29
2023-04-26T07:21:46.518Z,9.31
2023-04-26T07:24:15.807Z,9.31
2023-04-26T07:26:44.114Z,9.33
2023-04-26T07:29:13.318Z,9.34
2023-04-26T07:31:42.407Z,9.34
2023-04-26T07:34:10.894Z,9.34
2023-04-26T07:36:39.265Z,9.35
2023-04-26T07:39:10.263Z,9.36
2023-04-26T07:41:38.656Z,9.37
2023-04-26T07:44:07.708Z,9.37
2023-04-26T07:46:36.165Z,9.38
2023-04-26T07:49:05.162Z,9.38
2023-04-26T07:51:35.241Z,9.38
2023-04-26T07:54:04.120Z,9.37
2023-04-26T07:56:33.028Z,9.38
2023-04-26T07:59:01.025Z,9.38
2023-04-26T08:01:29.283Z,9.37
2023-04-26T08:03:57.954Z,9.37
2023-04-26T08:06:27.544Z,9.37
2023-04-26T08:08:56.424Z,9.36
2023-04-26T08:11:25.163Z,9.36
2023-04-26T08:13:53.940Z,9.35
2023-04-26T08:16:22.770Z,9.34
2023-04-26T08:18:51.141Z,9.34
2023-04-26T08:21:19.727Z,9.34
2023-04-26T08:23:48.786Z,9.34
2023-04-26T08:26:20.393Z,9.34
2023-04-26T08:28:48.338Z,9.34
2023-04-26T08:31:17.795Z,9.34
2023-04-26T08:33:46.118Z,9.35
2023-04-26T08:36:15.391Z,9.35
2023-04-26T08:38:44.526Z,9.35
2023-04-26T08:41:16.852Z,9.35
2023-04-26T08:43:54.277Z,9.35
2023-04-26T08:46:22.742Z,9.35
2023-04-26T08:49:00.593Z,9.36
2023-04-26T08:51:31.967Z,9.36
2023-04-26T08:54:02.196Z,9.35
2023-04-26T08:56:35.482Z,9.35
2023-04-26T08:59:04.074Z,9.36
2023-04-26T09:01:33.378Z,9.37
2023-04-26T09:04:03.384Z,9.38
2023-04-26T09:06:32.969Z,9.38
2023-04-26T09:09:04.873Z,9.40
2023-04-26T09:11:51.770Z,9.41
2023-04-26T09:14:19.768Z,9.42
2023-04-26T09:16:47.700Z,9.44
2023-04-26T09:19:15.784Z,9.44
2023-04-26T09:21:47.670Z,9.45
2023-04-26T09:24:16.776Z,9.47
2023-04-26T09:26:44.791Z,9.48
2023-04-26T09:29:17.432Z,9.49
2023-04-26T09:31:49.526Z,9.51
2023-04-26T09:34:19.311Z,9.53
2023-04-26T09:36:57.042Z,9.55
2023-04-26T09:39:34.969Z,9.55
2023-04-26T09:42:11.391Z,9.57
2023-04-26T09:44:39.529Z,9.59
2023-04-26T09:47:10.416Z,9.60
2023-04-26T09:49:50.646Z,9.62
2023-04-26T09:52:19.469Z,9.64
2023-04-26T09:54:56.726Z,9.65
2023-04-26T09:57:24.961Z,9.66
2023-04-26T09:59:55.602Z,9.69
2023-04-26T10:02:26.767Z,9.70
2023-04-26T10:04:56.962Z,9.71
2023-04-26T10:07:26.294Z,9.74
2023-04-26T10:09:55.810Z,9.75
2023-04-26T10:12:24.762Z,9.76
2023-04-26T10:14:54.409Z,9.76
2023-04-26T10:17:24.550Z,9.77
2023-04-26T10:19:53.744Z,9.78
2023-04-26T10:22:30.146Z,9.79
2023-04-26T10:24:59.293Z,9.83
2023-04-26T10:27:45.657Z,9.86
2023-04-26T10:30:20.377Z,9.91
2023-04-26T10:32:57.984Z,9.96
2023-04-26T10:35:32.928Z,10.01
2023-04-26T10:38:01.399Z,10.06
2023-04-26T10:40:31.695Z,10.11
2023-04-26T10:43:14.383Z,10.15
2023-04-26T10:45:44.352Z,10.20
2023-04-26T10:48:28.031Z,10.24
2023-04-26T10:51:05.604Z,10.29
2023-04-26T10:53:52.292Z,10.34
2023-04-26T10:56:23.995Z,10.38
2023-04-26T11:01:44.354Z,10.46
2023-04-26T11:04:13.547Z,10.49
2023-04-26T11:06:52.255Z,10.52
2023-04-26T11:09:47.678Z,10.55
2023-04-26T11:12:16.698Z,10.59
2023-04-26T11:14:46.331Z,10.63
2023-04-26T11:17:14.551Z,10.66
2023-04-26T11:19:42.670Z,10.70
2023-04-26T11:22:11.552Z,10.74
2023-04-26T11:24:39.727Z,10.77
2023-04-26T11:27:11.637Z,10.81
2023-04-26T11:29:39.652Z,10.84
2023-04-26T11:32:08.227Z,10.88
2023-04-26T11:34:38.299Z,10.91
2023-04-26T11:37:06.968Z,10.95
2023-04-26T11:39:35.661Z,10.99
2023-04-26T11:42:09.704Z,11.02
2023-04-26T11:44:38.230Z,11.06
2023-04-26T11:47:07.051Z,11.09
2023-04-26T11:49:39.061Z,11.12
2023-04-26T11:52:08.926Z,11.16
2023-04-26T11:54:38.045Z,11.19
2023-04-26T11:57:17.269Z,11.22
2023-04-26T11:59:46.484Z,11.25
2023-04-26T12:02:15.257Z,11.27
2023-04-26T12:04:45.058Z,11.29
2023-04-26T12:07:18.492Z,11.30
2023-04-26T12:09:46.794Z,11.31
2023-04-26T12:12:15.223Z,11.30
2023-04-26T12:14:43.245Z,11.31
2023-04-26T12:17:14.976Z,11.31
2023-04-26T12:19:44.274Z,11.31
2023-04-26T12:22:20.448Z,11.30
2023-04-26T12:24:49.085Z,11.30
2023-04-26T12:27:21.190Z,11.30
2023-04-26T12:29:49.314Z,11.30
2023-04-26T12:32:20.109Z,11.29
2023-04-26T12:34:50.199Z,11.27
2023-04-26T12:37:18.692Z,11.26
2023-04-26T12:39:47.308Z,11.24
2023-04-26T12:42:15.428Z,11.25
2023-04-26T12:44:44.575Z,11.24
2023-04-26T12:47:14.682Z,11.22
2023-04-26T12:49:43.631Z,11.21
2023-04-26T12:52:12.062Z,11.19
2023-04-26T12:54:40.154Z,11.19
2023-04-26T12:57:09.606Z,11.18
2023-04-26T12:59:37.422Z,11.19
2023-04-26T13:02:05.364Z,11.20
2023-04-26T13:04:35.250Z,11.21
2023-04-26T13:07:05.232Z,11.21
2023-04-26T13:09:33.232Z,11.22
2023-04-26T13:12:01.608Z,11.24
2023-04-26T13:14:29.643Z,11.24
2023-04-26T13:16:57.703Z,11.24
2023-04-26T13:19:26.381Z,11.26
2023-04-26T13:21:54.911Z,11.26
2023-04-26T13:24:22.865Z,11.27
2023-04-26T13:26:51.073Z,11.28
2023-04-26T13:29:19.230Z,11.30
2023-04-26T13:31:47.580Z,11.30
2023-04-26T13:34:16.055Z,11.30
2023-04-26T13:36:49.044Z,11.32
2023-04-26T13:39:17.945Z,11.33
2023-04-26T13:41:46.529Z,11.34
2023-04-26T13:44:16.055Z,11.35
2023-04-26T13:46:45.798Z,11.36
2023-04-26T13:49:15.171Z,11.37
2023-04-26T13:51:44.663Z,11.38
2023-04-26T13:54:13.368Z,11.40
2023-04-26T13:56:42.199Z,11.41
2023-04-26T13:59:11.172Z,11.42
2023-04-26T14:01:40.873Z,11.44
2023-04-26T14:04:10.194Z,11.46
2023-04-26T14:06:39.485Z,11.47
2023-04-26T14:09:09.692Z,11.50
2023-04-26T14:11:38.064Z,11.51
2023-04-26T14:14:06.739Z,11.52
2023-04-26T14:16:35.630Z,11.54
2023-04-26T14:19:04.039Z,11.56
2023-04-26T14:21:32.576Z,11.57
2023-04-26T14:24:00.973Z,11.58
2023-04-26T14:26:29.306Z,11.59
2023-04-26T14:28:57.538Z,11.60
2023-04-26T14:31:26.393Z,11.61
2023-04-26T14:33:54.789Z,11.62
2023-04-26T14:36:23.691Z,11.63
2023-04-26T14:38:51.683Z,11.65
2023-04-26T14:41:20.482Z,11.66
2023-04-26T14:43:48.659Z,11.66
2023-04-26T14:46:17.347Z,11.66
2023-04-26T14:48:45.855Z,11.66
2023-04-26T14:51:14.400Z,11.66
2023-04-26T14:53:43.353Z,11.65
2023-04-26T14:56:12.256Z,11.64
2023-04-26T14:58:40.373Z,11.63
2023-04-26T15:01:09.507Z,11.63
2023-04-26T15:03:38.161Z,11.62
2023-04-26T15:06:08.731Z,11.62
2023-04-26T15:08:37.304Z,11.61
2023-04-26T15:11:05.812Z,11.60
2023-04-26T15:13:34.843Z,11.60
2023-04-26T15:16:07.381Z,11.60
2023-04-26T15:18:37.647Z,11.60
2023-04-26T15:21:07.348Z,11.60
2023-04-26T15:23:36.258Z,11.59
2023-04-26T15:26:04.820Z,11.60
2023-04-26T15:28:33.106Z,11.59
2023-04-26T15:31:04.965Z,11.58
2023-04-26T15:33:34.175Z,11.58
2023-04-26T15:36:02.925Z,11.57
2023-04-26T15:38:31.444Z,11.56
2023-04-26T15:40:59.566Z,11.54
2023-04-26T15:43:27.406Z,11.54
2023-04-26T15:45:55.816Z,11.54
2023-04-26T15:48:26.045Z,11.53
2023-04-26T15:50:56.875Z,11.53
2023-04-26T15:53:26.325Z,11.52
2023-04-26T15:55:56.545Z,11.52
2023-04-26T15:58:25.372Z,11.51
2023-04-26T16:00:53.533Z,11.51
2023-04-26T16:03:23.079Z,11.51
2023-04-26T16:05:51.884Z,11.50
2023-04-26T16:08:38.798Z,11.48
2023-04-26T16:11:07.871Z,11.46
2023-04-26T16:13:35.996Z,11.45
2023-04-26T16:16:09.139Z,11.44
2023-04-26T16:18:39.963Z,11.43
2023-04-26T16:21:10.348Z,11.43
2023-04-26T16:23:38.794Z,11.43
2023-04-26T16:26:07.926Z,11.42
2023-04-26T16:28:36.623Z,11.42
2023-04-26T16:31:06.917Z,11.41
2023-04-26T16:33:35.645Z,11.41
2023-04-26T16:36:03.952Z,11.41
2023-04-26T16:38:31.897Z,11.39
2023-04-26T16:41:01.855Z,11.39
2023-04-26T16:43:30.693Z,11.38
2023-04-26T16:46:03.191Z,11.38
2023-04-26T16:48:33.095Z,11.37
2023-04-26T16:51:04.875Z,11.36
2023-04-26T16:53:36.070Z,11.35
2023-04-26T16:56:05.725Z,11.34
2023-04-26T16:58:33.736Z,11.34
2023-04-26T17:01:01.939Z,11.34
2023-04-26T17:03:30.825Z,11.32
2023-04-26T17:06:00.209Z,11.32
2023-04-26T17:08:28.759Z,11.31
2023-04-26T17:10:56.921Z,11.30
2023-04-26T17:13:29.457Z,11.30
2023-04-26T17:15:57.577Z,11.29
2023-04-26T17:18:26.811Z,11.27
2023-04-26T17:20:56.618Z,11.25
2023-04-26T17:23:24.785Z,11.23
2023-04-26T17:25:55.072Z,11.22
2023-04-26T17:28:23.964Z,11.20
2023-04-26T17:30:52.199Z,11.19
2023-04-26T17:33:20.443Z,11.17
2023-04-26T17:35:49.438Z,11.16
2023-04-26T17:38:17.991Z,11.14
2023-04-26T17:40:51.456Z,11.13
2023-04-26T17:43:20.002Z,11.11
2023-04-26T17:45:48.582Z,11.09
2023-04-26T17:48:17.825Z,11.08
2023-04-26T17:50:46.420Z,11.05
2023-04-26T17:53:16.856Z,11.02
2023-04-26T17:55:45.412Z,11.01
2023-04-26T17:58:13.889Z,10.99
2023-04-26T18:00:42.081Z,10.97
2023-04-26T18:03:12.111Z,10.95
2023-04-26T18:05:40.590Z,10.93
2023-04-26T18:08:08.626Z,10.91
2023-04-26T18:10:37.196Z,10.89
2023-04-26T18:13:05.689Z,10.86
2023-04-26T18:15:33.911Z,10.83
2023-04-26T18:18:05.555Z,10.80
2023-04-26T18:20:35.567Z,10.77
2023-04-26T18:23:04.473Z,10.74
2023-04-26T18:25:32.592Z,10.72
2023-04-26T18:28:01.134Z,10.70
2023-04-26T18:30:30.264Z,10.67
2023-04-26T18:32:58.326Z,10.64
2023-04-26T18:35:26.926Z,10.62
2023-04-26T18:37:55.210Z,10.60
2023-04-26T18:40:23.935Z,10.58
2023-04-26T18:42:52.948Z,10.56
2023-04-26T18:45:21.501Z,10.54
2023-04-26T18:47:55.207Z,10.51
2023-04-26T18:50:26.698Z,10.49
2023-04-26T18:52:55.251Z,10.45
2023-04-26T18:55:27.206Z,10.43
2023-04-26T18:57:55.445Z,10.40
2023-04-26T19:00:23.929Z,10.36
2023-04-26T19:02:55.387Z,10.33
2023-04-26T19:05:24.693Z,10.30
2023-04-26T19:07:55.335Z,10.27
2023-04-26T19:10:24.045Z,10.24
2023-04-26T19:12:52.460Z,10.20
2023-04-26T19:15:21.273Z,10.17
2023-04-26T19:17:50.607Z,10.13
2023-04-26T19:20:20.170Z,10.10
2023-04-26T19:22:48.588Z,10.06
2023-04-26T19:25:20.523Z,10.04
2023-04-26T19:27:50.984Z,10.01
2023-04-26T19:30:19.461Z,9.97
2023-04-26T19:32:50.038Z,9.95
2023-04-26T19:35:18.019Z,9.93
2023-04-26T19:37:46.315Z,9.89
2023-04-26T19:40:17.189Z,9.86
2023-04-26T19:42:45.296Z,9.83
2023-04-26T19:45:13.943Z,9.81
2023-04-26T19:47:43.331Z,9.78
2023-04-26T19:50:11.571Z,9.76
2023-04-26T19:52:40.828Z,9.73
2023-04-26T19:55:11.072Z,9.70
2023-04-26T19:57:39.880Z,9.68
2023-04-26T20:00:10.431Z,9.66
2023-04-26T20:02:39.676Z,9.62
2023-04-26T20:05:08.221Z,9.60
2023-04-26T20:07:37.329Z,9.57
2023-04-26T20:10:06.292Z,9.54
2023-04-26T20:12:34.665Z,9.52
2023-04-26T20:15:03.059Z,9.50
2023-04-26T20:17:32.234Z,9.47
2023-04-26T20:20:01.550Z,9.45
2023-04-26T20:22:30.049Z,9.43
2023-04-26T20:24:58.718Z,9.39
2023-04-26T20:27:26.835Z,9.37
2023-04-26T20:29:54.840Z,9.34
2023-04-26T20:32:23.980Z,9.32
2023-04-26T20:34:52.358Z,9.30
2023-04-26T20:37:22.167Z,9.26
2023-04-26T20:39:50.610Z,9.23
2023-04-26T20:42:19.553Z,9.19
2023-04-26T20:44:47.805Z,9.18
2023-04-26T20:47:17.013Z,9.16
2023-04-26T20:49:45.056Z,9.15
2023-04-26T20:52:13.632Z,9.13
2023-04-26T20:54:41.785Z,9.11
2023-04-26T20:57:09.765Z,9.09
2023-04-26T20:59:38.098Z,9.06
2023-04-26T21:02:07.826Z,9.04
2023-04-26T21:04:38.670Z,9.02
2023-04-26T21:07:07.129Z,9.00
2023-04-26T21:09:35.433Z,8.97
2023-04-26T21:12:04.156Z,8.94
2023-04-26T21:14:32.755Z,8.92
2023-04-26T21:17:01.622Z,8.90
2023-04-26T21:19:29.850Z,8.87
2023-04-26T21:21:58.038Z,8.85
2023-04-26T21:24:26.756Z,8.82
2023-04-26T21:26:54.758Z,8.81
2023-04-26T21:29:22.840Z,8.79
2023-04-26T21:31:51.098Z,8.76
2023-04-26T21:34:19.372Z,8.74
2023-04-26T21:36:47.583Z,8.72
2023-04-26T21:39:16.246Z,8.70
2023-04-26T21:41:44.505Z,8.68
2023-04-26T21:44:13.436Z,8.66
2023-04-26T21:46:42.218Z,8.64
2023-04-26T21:49:11.266Z,8.62
2023-04-26T21:51:40.426Z,8.60
2023-04-26T21:54:09.538Z,8.59
2023-04-26T21:56:38.067Z,8.57
2023-04-26T21:59:08.443Z,8.54
2023-04-26T22:01:36.887Z,8.53
2023-04-26T22:04:05.558Z,8.51
2023-04-26T22:06:34.474Z,8.48
2023-04-26T22:09:04.321Z,8.46
2023-04-26T22:11:32.755Z,8.44
2023-04-26T22:14:01.151Z,8.43
2023-04-26T22:16:29.070Z,8.42
2023-04-26T22:18:58.722Z,8.40
2023-04-26T22:21:27.014Z,8.38
2023-04-26T22:23:54.999Z,8.37
2023-04-26T22:26:22.909Z,8.35
2023-04-26T22:28:50.996Z,8.34
2023-04-26T22:31:19.120Z,8.33
2023-04-26T22:33:47.742Z,8.31
2023-04-26T22:36:15.584Z,8.29
2023-04-26T22:38:43.591Z,8.28
2023-04-26T22:41:12.051Z,8.26
2023-04-26T22:43:43.919Z,8.24
2023-04-26T22:46:12.671Z,8.22
2023-04-26T22:48:42.425Z,8.21
2023-04-26T22:51:14.378Z,8.20
2023-04-26T22:53:43.457Z,8.18
2023-04-26T22:56:12.374Z,8.17
2023-04-26T22:58:41.870Z,8.16
2023-04-26T23:01:09.984Z,8.14
2023-04-26T23:03:38.745Z,8.13
2023-04-26T23:06:07.620Z,8.11
2023-04-26T23:08:36.569Z,8.10
2023-04-26T23:11:08.972Z,8.08
2023-04-26T23:13:37.155Z,8.07
2023-04-26T23:16:05.838Z,8.06
2023-04-26T23:18:35.278Z,8.04
2023-04-26T23:21:03.186Z,8.03
2023-04-26T23:23:33.327Z,8.00
2023-04-26T23:26:03.791Z,7.99
2023-04-26T23:28:33.039Z,7.97
2023-04-26T23:31:01.170Z,7.94
2023-04-26T23:33:31.706Z,7.93
2023-04-26T23:36:01.163Z,7.91
2023-04-26T23:38:29.636Z,7.91
2023-04-26T23:40:59.167Z,7.89
2023-04-26T23:43:28.693Z,7.88
2023-04-26T23:45:57.166Z,7.87
2023-04-26T23:48:25.799Z,7.86
2023-04-26T23:50:54.629Z,7.85
2023-04-26T23:53:24.003Z,7.84
2023-04-26T23:55:52.045Z,7.83
2023-04-26T23:58:22.044Z,7.82
